Aérodrome :
LOGIN :

S'inscrire | Disclaimer

   EN    FR    IT 

 










Légende :    VFR   VFR Marginal   IFR   IFR Intensif   IFR Très Intensif
Visi : 
Plafond : 
>= 8 km
>= 3000ft
5 à 8 km
1000 à 3000 ft
1500m à 5 km
500 à 1000 ft
800 à 1500m
200 à 500 ft
< 800m
< 200 ft
Symboles :   Orages  Brouillard  Fortes neiges  Fortes précipitations  Vent > 20 kt
SIGMETs :   Divers  Orages  Givrage  Turbulence  Onde Orograph.  Cendres Volcan.







- Altitude de l'aérodrome : 463 ft
- Code IATA : QAS


DAOI - Chlef Int.

DERNIER METAR :
  • 230400Z 05004KT CAVOK 10/07 Q1017

METARs EXPIRÉS :
  • 230300Z 06004KT CAVOK 10/07 Q1017
  • 230200Z 07004KT CAVOK 11/06 Q1017

TAF TAF DAOI
Valide du 23 à 00h jusqu'au 24 à 00h UTC


222300Z 2300/2324 06005KT CAVOK
BECMG 2301/2304 VRB02KT
BECMG 2309/2312 30008KT
BECMG 2314/2317 VRB02KT
BECMG 2318/2321 15008KT
Pas de NOTAMs connus pour ce terrain.
1 SIGMET publié pour la FIR Alger (DAAA) :
 
Turbulence forte
DAAA SIGMET 1 VALID 230245/230545 DAMM
DAAA ALGIERS FIR SEV TURB FCST WI N3535 E00646 - N3542 E00816 - N3313 E00758 - N3313 E00612 - N3535 E00646 TOP FL370/240 MOV E=



MET'MAP, la Météo Aéronautique d'un coup d'oeil ! - Copyright ORBIFLY Décembre 2007 - Disclaimer

ORBIFLY MET'MAP TEAM :

Programmation & Développement : Alexandra Zaïnal
Conception & Développement : Baudouin d'Aumeries
Co-Programmation & Développement : Marc-Olivier Méhu
Soutien technique & logistique : Manuel Goepfert

Contact : metmap@orbifly.com




SOURCES & CREDITS :

   NOAA